Terminal Aerodrome Forecast
Issued by NWS

Home | Current Version | Previous Version | Text Only | Print | Product List | Glossary On
Versions: 1 2 3 4 5 6 7 8 9 10 11 12 13 14 15 16 17 18 19 20 21 22
666
FTUS43 KBIS 281129
TAFMOT
TAF
KMOT 281129Z 2812/0112 08006KT 2SM BR OVC003
      TEMPO 2812/2814 1/2SM FZFG OVC002
     FM281600 11007KT P6SM BKN012
     FM010400 12007KT P6SM VCSH OVC015
     FM010600 12007KT 1 1/2SM -SN OVC009
     FM011100 33007KT P6SM BKN010=

USA.gov is the U.S. government's official web portal to all federal, state and local government web resources and services.